sensor_id;sensor_type;location;lat;lon;timestamp;temperature;humidity
22716;DHT22;11525;51.152;4.456;2023-02-01T00:01:32;7.00;99.90
22716;DHT22;11525;51.152;4.456;2023-02-01T00:03:58;7.00;99.90
22716;DHT22;11525;51.152;4.456;2023-02-01T00:06:23;7.10;99.90
22716;DHT22;11525;51.152;4.456;2023-02-01T00:08:54;7.20;99.90
22716;DHT22;11525;51.152;4.456;2023-02-01T00:11:20;7.20;99.90
22716;DHT22;11525;51.152;4.456;2023-02-01T00:13:46;7.20;99.90
22716;DHT22;11525;51.152;4.456;2023-02-01T00:16:23;7.30;99.90
22716;DHT22;11525;51.152;4.456;2023-02-01T00:18:51;7.20;99.90
22716;DHT22;11525;51.152;4.456;2023-02-01T00:21:19;7.20;99.90
22716;DHT22;11525;51.152;4.456;2023-02-01T00:23:46;7.20;99.90
22716;DHT22;11525;51.152;4.456;2023-02-01T00:26:17;7.20;99.90
22716;DHT22;11525;51.152;4.456;2023-02-01T00:28:43;7.20;99.90
22716;DHT22;11525;51.152;4.456;2023-02-01T00:31:08;7.40;99.90
22716;DHT22;11525;51.152;4.456;2023-02-01T00:33:34;7.20;99.90
22716;DHT22;11525;51.152;4.456;2023-02-01T00:36:05;7.10;99.90
22716;DHT22;11525;51.152;4.456;2023-02-01T00:38:32;7.00;99.90
22716;DHT22;11525;51.152;4.456;2023-02-01T00:43:31;6.80;99.90
22716;DHT22;11525;51.152;4.456;2023-02-01T00:45:57;6.70;99.90
22716;DHT22;11525;51.152;4.456;2023-02-01T00:48:23;6.80;99.90
22716;DHT22;11525;51.152;4.456;2023-02-01T00:50:49;6.80;99.90
22716;DHT22;11525;51.152;4.456;2023-02-01T00:53:15;6.90;99.90
22716;DHT22;11525;51.152;4.456;2023-02-01T00:55:45;6.80;99.90
22716;DHT22;11525;51.152;4.456;2023-02-01T00:58:11;6.70;99.90
22716;DHT22;11525;51.152;4.456;2023-02-01T01:00:36;6.70;99.90
22716;DHT22;11525;51.152;4.456;2023-02-01T01:03:03;6.60;99.90
22716;DHT22;11525;51.152;4.456;2023-02-01T01:05:43;6.70;99.90
22716;DHT22;11525;51.152;4.456;2023-02-01T01:08:09;6.80;99.90
22716;DHT22;11525;51.152;4.456;2023-02-01T01:10:35;6.70;99.90
22716;DHT22;11525;51.152;4.456;2023-02-01T01:13:00;6.60;99.90
22716;DHT22;11525;51.152;4.456;2023-02-01T01:15:26;6.50;99.90
22716;DHT22;11525;51.152;4.456;2023-02-01T01:17:52;6.60;99.90
22716;DHT22;11525;51.152;4.456;2023-02-01T01:20:18;6.60;99.90
22716;DHT22;11525;51.152;4.456;2023-02-01T01:22:47;6.40;99.90
22716;DHT22;11525;51.152;4.456;2023-02-01T01:25:16;6.40;99.90
22716;DHT22;11525;51.152;4.456;2023-02-01T01:27:41;6.60;99.90
22716;DHT22;11525;51.152;4.456;2023-02-01T01:30:07;6.50;99.90
22716;DHT22;11525;51.152;4.456;2023-02-01T01:32:33;6.40;99.90
22716;DHT22;11525;51.152;4.456;2023-02-01T01:34:59;6.40;99.90
22716;DHT22;11525;51.152;4.456;2023-02-01T01:37:25;6.50;99.90
22716;DHT22;11525;51.152;4.456;2023-02-01T01:39:51;6.60;99.90
22716;DHT22;11525;51.152;4.456;2023-02-01T01:42:16;6.50;99.90
22716;DHT22;11525;51.152;4.456;2023-02-01T01:45:05;6.40;99.90
22716;DHT22;11525;51.152;4.456;2023-02-01T01:47:37;6.40;99.90
22716;DHT22;11525;51.152;4.456;2023-02-01T01:50:07;6.40;99.90
22716;DHT22;11525;51.152;4.456;2023-02-01T01:52:34;6.40;99.90
22716;DHT22;11525;51.152;4.456;2023-02-01T01:55:00;6.30;99.90
22716;DHT22;11525;51.152;4.456;2023-02-01T01:57:35;6.30;99.90
22716;DHT22;11525;51.152;4.456;2023-02-01T02:00:07;6.30;99.90
22716;DHT22;11525;51.152;4.456;2023-02-01T02:02:35;6.40;99.90
22716;DHT22;11525;51.152;4.456;2023-02-01T02:05:01;6.30;99.90
22716;DHT22;11525;51.152;4.456;2023-02-01T02:07:30;6.20;99.90
22716;DHT22;11525;51.152;4.456;2023-02-01T02:09:57;6.00;99.90
22716;DHT22;11525;51.152;4.456;2023-02-01T02:12:22;6.20;99.90
22716;DHT22;11525;51.152;4.456;2023-02-01T02:14:49;6.10;99.90
22716;DHT22;11525;51.152;4.456;2023-02-01T02:17:36;6.10;99.90
22716;DHT22;11525;51.152;4.456;2023-02-01T02:42:03;6.00;99.90
22716;DHT22;11525;51.152;4.456;2023-02-01T02:44:58;6.00;99.90
22716;DHT22;11525;51.152;4.456;2023-02-01T02:47:57;5.80;99.90
22716;DHT22;11525;51.152;4.456;2023-02-01T02:50:57;5.90;99.90
22716;DHT22;11525;51.152;4.456;2023-02-01T02:54:02;5.90;99.90
22716;DHT22;11525;51.152;4.456;2023-02-01T02:56:50;5.80;99.90
22716;DHT22;11525;51.152;4.456;2023-02-01T02:59:36;5.80;99.90
22716;DHT22;11525;51.152;4.456;2023-02-01T03:02:22;5.70;99.90
22716;DHT22;11525;51.152;4.456;2023-02-01T03:05:07;5.80;99.90
22716;DHT22;11525;51.152;4.456;2023-02-01T03:13:08;6.00;99.90
22716;DHT22;11525;51.152;4.456;2023-02-01T03:18:42;5.90;99.90
22716;DHT22;11525;51.152;4.456;2023-02-01T03:21:14;5.90;99.90
22716;DHT22;11525;51.152;4.456;2023-02-01T03:23:42;5.80;99.90
22716;DHT22;11525;51.152;4.456;2023-02-01T03:26:13;5.90;99.90
22716;DHT22;11525;51.152;4.456;2023-02-01T03:28:44;5.90;99.90
22716;DHT22;11525;51.152;4.456;2023-02-01T03:31:11;5.90;99.90
22716;DHT22;11525;51.152;4.456;2023-02-01T03:33:36;5.90;99.90
22716;DHT22;11525;51.152;4.456;2023-02-01T03:36:30;5.90;99.90
22716;DHT22;11525;51.152;4.456;2023-02-01T03:39:22;6.00;99.90
22716;DHT22;11525;51.152;4.456;2023-02-01T03:41:55;6.00;99.90
22716;DHT22;11525;51.152;4.456;2023-02-01T03:44:34;5.80;99.90
22716;DHT22;11525;51.152;4.456;2023-02-01T03:47:06;5.90;99.90
22716;DHT22;11525;51.152;4.456;2023-02-01T03:49:57;6.00;99.90
22716;DHT22;11525;51.152;4.456;2023-02-01T03:52:29;5.90;99.90
22716;DHT22;11525;51.152;4.456;2023-02-01T03:54:57;6.10;99.90
22716;DHT22;11525;51.152;4.456;2023-02-01T03:57:27;5.90;99.90
22716;DHT22;11525;51.152;4.456;2023-02-01T04:00:05;6.00;99.90
22716;DHT22;11525;51.152;4.456;2023-02-01T04:02:30;5.90;99.90
22716;DHT22;11525;51.152;4.456;2023-02-01T04:04:56;5.80;99.90
22716;DHT22;11525;51.152;4.456;2023-02-01T04:07:22;5.70;99.90
22716;DHT22;11525;51.152;4.456;2023-02-01T04:09:47;5.90;99.90
22716;DHT22;11525;51.152;4.456;2023-02-01T04:12:13;6.00;99.90
22716;DHT22;11525;51.152;4.456;2023-02-01T04:14:39;6.00;99.90
22716;DHT22;11525;51.152;4.456;2023-02-01T04:17:04;6.00;99.90
22716;DHT22;11525;51.152;4.456;2023-02-01T04:19:30;5.90;99.90
22716;DHT22;11525;51.152;4.456;2023-02-01T04:21:56;5.90;99.90
22716;DHT22;11525;51.152;4.456;2023-02-01T04:24:21;6.00;99.90
22716;DHT22;11525;51.152;4.456;2023-02-01T04:26:47;6.00;99.90
22716;DHT22;11525;51.152;4.456;2023-02-01T04:29:13;5.90;99.90
22716;DHT22;11525;51.152;4.456;2023-02-01T04:31:38;5.80;99.90
22716;DHT22;11525;51.152;4.456;2023-02-01T04:34:04;5.80;99.90
22716;DHT22;11525;51.152;4.456;2023-02-01T04:36:30;5.90;99.90
22716;DHT22;11525;51.152;4.456;2023-02-01T04:38:55;5.80;99.90
22716;DHT22;11525;51.152;4.456;2023-02-01T04:41:21;5.80;99.90
22716;DHT22;11525;51.152;4.456;2023-02-01T04:43:49;5.90;99.90
22716;DHT22;11525;51.152;4.456;2023-02-01T04:46:16;6.00;99.90
22716;DHT22;11525;51.152;4.456;2023-02-01T04:48:42;5.90;99.90
22716;DHT22;11525;51.152;4.456;2023-02-01T04:51:08;5.90;99.90
22716;DHT22;11525;51.152;4.456;2023-02-01T04:53:35;5.90;99.90
22716;DHT22;11525;51.152;4.456;2023-02-01T04:56:01;5.80;99.90
22716;DHT22;11525;51.152;4.456;2023-02-01T04:58:26;5.90;99.90
22716;DHT22;11525;51.152;4.456;2023-02-01T05:00:52;5.90;99.90
22716;DHT22;11525;51.152;4.456;2023-02-01T05:03:18;6.00;99.90
22716;DHT22;11525;51.152;4.456;2023-02-01T05:05:44;5.80;99.90
22716;DHT22;11525;51.152;4.456;2023-02-01T05:08:09;5.70;99.90
22716;DHT22;11525;51.152;4.456;2023-02-01T05:10:35;5.70;99.90
22716;DHT22;11525;51.152;4.456;2023-02-01T05:13:01;5.70;99.90
22716;DHT22;11525;51.152;4.456;2023-02-01T05:15:45;5.50;99.90
22716;DHT22;11525;51.152;4.456;2023-02-01T05:18:12;5.40;99.90
22716;DHT22;11525;51.152;4.456;2023-02-01T05:20:38;5.40;99.90
22716;DHT22;11525;51.152;4.456;2023-02-01T05:23:03;5.40;99.90
22716;DHT22;11525;51.152;4.456;2023-02-01T05:25:29;5.50;99.90
22716;DHT22;11525;51.152;4.456;2023-02-01T05:27:55;5.50;99.90
22716;DHT22;11525;51.152;4.456;2023-02-01T05:30:21;5.60;99.90
22716;DHT22;11525;51.152;4.456;2023-02-01T05:32:52;5.70;99.90
22716;DHT22;11525;51.152;4.456;2023-02-01T05:35:19;5.70;99.90
22716;DHT22;11525;51.152;4.456;2023-02-01T05:37:44;5.80;99.90
22716;DHT22;11525;51.152;4.456;2023-02-01T05:40:10;5.90;99.90
22716;DHT22;11525;51.152;4.456;2023-02-01T05:42:36;5.90;99.90
22716;DHT22;11525;51.152;4.456;2023-02-01T05:45:02;5.70;99.90
22716;DHT22;11525;51.152;4.456;2023-02-01T05:47:30;5.70;99.90
22716;DHT22;11525;51.152;4.456;2023-02-01T05:49:56;5.70;99.90
22716;DHT22;11525;51.152;4.456;2023-02-01T05:52:22;5.70;99.90
22716;DHT22;11525;51.152;4.456;2023-02-01T05:54:48;5.70;99.90
22716;DHT22;11525;51.152;4.456;2023-02-01T05:57:14;5.70;99.90
22716;DHT22;11525;51.152;4.456;2023-02-01T05:59:39;5.90;99.90
22716;DHT22;11525;51.152;4.456;2023-02-01T06:02:14;6.00;99.90
22716;DHT22;11525;51.152;4.456;2023-02-01T06:04:40;6.00;99.90
22716;DHT22;11525;51.152;4.456;2023-02-01T06:07:07;6.00;99.90
22716;DHT22;11525;51.152;4.456;2023-02-01T06:09:34;5.80;99.90
22716;DHT22;11525;51.152;4.456;2023-02-01T06:12:00;5.90;99.90
22716;DHT22;11525;51.152;4.456;2023-02-01T06:14:26;5.80;99.90
22716;DHT22;11525;51.152;4.456;2023-02-01T06:16:53;5.60;99.90
22716;DHT22;11525;51.152;4.456;2023-02-01T06:19:19;5.60;99.90
22716;DHT22;11525;51.152;4.456;2023-02-01T06:21:45;5.60;99.90
22716;DHT22;11525;51.152;4.456;2023-02-01T06:24:12;5.60;99.90
22716;DHT22;11525;51.152;4.456;2023-02-01T06:26:38;5.80;99.90
22716;DHT22;11525;51.152;4.456;2023-02-01T06:29:06;5.90;99.90
22716;DHT22;11525;51.152;4.456;2023-02-01T06:31:32;5.80;99.90
22716;DHT22;11525;51.152;4.456;2023-02-01T06:33:58;5.70;99.90
22716;DHT22;11525;51.152;4.456;2023-02-01T06:36:24;5.60;99.90
22716;DHT22;11525;51.152;4.456;2023-02-01T06:38:49;5.50;99.90
22716;DHT22;11525;51.152;4.456;2023-02-01T06:41:15;5.50;99.90
22716;DHT22;11525;51.152;4.456;2023-02-01T06:43:41;5.50;99.90
22716;DHT22;11525;51.152;4.456;2023-02-01T06:46:13;5.50;99.90
22716;DHT22;11525;51.152;4.456;2023-02-01T06:48:39;5.50;99.90
22716;DHT22;11525;51.152;4.456;2023-02-01T06:51:05;5.60;99.90
22716;DHT22;11525;51.152;4.456;2023-02-01T06:53:32;5.60;99.90
22716;DHT22;11525;51.152;4.456;2023-02-01T06:55:59;5.60;99.90
22716;DHT22;11525;51.152;4.456;2023-02-01T06:58:33;5.60;99.90
22716;DHT22;11525;51.152;4.456;2023-02-01T07:01:05;5.50;99.90
22716;DHT22;11525;51.152;4.456;2023-02-01T07:03:31;5.50;99.90
22716;DHT22;11525;51.152;4.456;2023-02-01T07:05:57;5.50;99.90
22716;DHT22;11525;51.152;4.456;2023-02-01T07:08:30;5.60;99.90
22716;DHT22;11525;51.152;4.456;2023-02-01T07:11:00;5.60;99.90
22716;DHT22;11525;51.152;4.456;2023-02-01T07:13:26;5.50;99.90
22716;DHT22;11525;51.152;4.456;2023-02-01T07:15:52;5.50;99.90
22716;DHT22;11525;51.152;4.456;2023-02-01T07:18:18;5.50;99.90
22716;DHT22;11525;51.152;4.456;2023-02-01T07:20:49;5.60;99.90
22716;DHT22;11525;51.152;4.456;2023-02-01T07:23:15;5.50;99.90
22716;DHT22;11525;51.152;4.456;2023-02-01T07:25:41;5.40;99.90
22716;DHT22;11525;51.152;4.456;2023-02-01T07:28:07;5.40;99.90
22716;DHT22;11525;51.152;4.456;2023-02-01T07:30:33;5.30;99.90
22716;DHT22;11525;51.152;4.456;2023-02-01T07:32:59;5.40;99.90
22716;DHT22;11525;51.152;4.456;2023-02-01T07:35:27;5.40;99.90
22716;DHT22;11525;51.152;4.456;2023-02-01T07:37:53;5.40;99.90
22716;DHT22;11525;51.152;4.456;2023-02-01T07:40:19;5.50;99.90
22716;DHT22;11525;51.152;4.456;2023-02-01T07:42:50;5.40;99.90
22716;DHT22;11525;51.152;4.456;2023-02-01T07:45:16;5.40;99.90
22716;DHT22;11525;51.152;4.456;2023-02-01T07:47:41;5.50;99.90
22716;DHT22;11525;51.152;4.456;2023-02-01T07:50:08;5.50;99.90
22716;DHT22;11525;51.152;4.456;2023-02-01T07:52:33;5.50;99.90
22716;DHT22;11525;51.152;4.456;2023-02-01T07:54:59;5.60;99.90
22716;DHT22;11525;51.152;4.456;2023-02-01T07:57:25;5.60;99.90
22716;DHT22;11525;51.152;4.456;2023-02-01T07:59:51;5.60;99.90
22716;DHT22;11525;51.152;4.456;2023-02-01T08:02:35;5.70;99.90
22716;DHT22;11525;51.152;4.456;2023-02-01T08:05:00;5.90;99.90
22716;DHT22;11525;51.152;4.456;2023-02-01T08:07:26;6.10;99.90
22716;DHT22;11525;51.152;4.456;2023-02-01T08:09:52;6.10;99.90
22716;DHT22;11525;51.152;4.456;2023-02-01T08:12:17;6.30;99.90
22716;DHT22;11525;51.152;4.456;2023-02-01T08:14:43;6.30;99.90
22716;DHT22;11525;51.152;4.456;2023-02-01T08:17:09;6.30;99.90
22716;DHT22;11525;51.152;4.456;2023-02-01T08:19:34;6.40;99.90
22716;DHT22;11525;51.152;4.456;2023-02-01T08:22:00;6.40;99.90
22716;DHT22;11525;51.152;4.456;2023-02-01T08:24:31;6.40;99.90
22716;DHT22;11525;51.152;4.456;2023-02-01T08:26:57;6.50;99.90
22716;DHT22;11525;51.152;4.456;2023-02-01T08:29:23;6.50;99.90
22716;DHT22;11525;51.152;4.456;2023-02-01T08:31:48;6.50;99.90
22716;DHT22;11525;51.152;4.456;2023-02-01T08:34:14;6.50;99.90
22716;DHT22;11525;51.152;4.456;2023-02-01T08:36:40;6.60;99.90
22716;DHT22;11525;51.152;4.456;2023-02-01T08:39:06;6.70;99.90
22716;DHT22;11525;51.152;4.456;2023-02-01T08:41:34;6.80;99.90
22716;DHT22;11525;51.152;4.456;2023-02-01T08:44:00;6.90;99.90
22716;DHT22;11525;51.152;4.456;2023-02-01T08:46:26;7.10;99.90
22716;DHT22;11525;51.152;4.456;2023-02-01T08:48:52;7.10;99.90
22716;DHT22;11525;51.152;4.456;2023-02-01T08:51:19;7.20;99.90
22716;DHT22;11525;51.152;4.456;2023-02-01T08:53:45;7.20;99.90
22716;DHT22;11525;51.152;4.456;2023-02-01T08:56:13;7.20;99.90
22716;DHT22;11525;51.152;4.456;2023-02-01T08:58:39;7.00;99.90
22716;DHT22;11525;51.152;4.456;2023-02-01T09:01:07;7.10;99.90
22716;DHT22;11525;51.152;4.456;2023-02-01T09:03:33;7.30;99.90
22716;DHT22;11525;51.152;4.456;2023-02-01T09:06:11;7.30;99.90
22716;DHT22;11525;51.152;4.456;2023-02-01T09:08:37;7.40;99.90
22716;DHT22;11525;51.152;4.456;2023-02-01T09:11:06;7.60;99.90
22716;DHT22;11525;51.152;4.456;2023-02-01T09:13:33;7.70;99.90
22716;DHT22;11525;51.152;4.456;2023-02-01T09:15:59;7.80;99.90
22716;DHT22;11525;51.152;4.456;2023-02-01T09:18:25;8.00;99.90
22716;DHT22;11525;51.152;4.456;2023-02-01T09:20:51;8.40;99.90
22716;DHT22;11525;51.152;4.456;2023-02-01T09:23:17;8.70;99.90
22716;DHT22;11525;51.152;4.456;2023-02-01T09:25:46;8.60;99.90
22716;DHT22;11525;51.152;4.456;2023-02-01T09:28:11;9.10;99.90
22716;DHT22;11525;51.152;4.456;2023-02-01T09:30:37;9.30;99.90
22716;DHT22;11525;51.152;4.456;2023-02-01T09:33:04;9.70;99.90
22716;DHT22;11525;51.152;4.456;2023-02-01T09:35:29;9.90;99.90
22716;DHT22;11525;51.152;4.456;2023-02-01T09:37:55;10.20;99.90
22716;DHT22;11525;51.152;4.456;2023-02-01T09:40:21;10.20;99.90
22716;DHT22;11525;51.152;4.456;2023-02-01T09:45:30;10.50;99.90
22716;DHT22;11525;51.152;4.456;2023-02-01T09:48:01;10.80;99.90
22716;DHT22;11525;51.152;4.456;2023-02-01T09:50:36;10.60;99.90
22716;DHT22;11525;51.152;4.456;2023-02-01T09:53:18;10.70;99.90
22716;DHT22;11525;51.152;4.456;2023-02-01T09:55:49;10.80;99.90
22716;DHT22;11525;51.152;4.456;2023-02-01T09:58:47;11.10;99.90
22716;DHT22;11525;51.152;4.456;2023-02-01T10:01:33;11.90;99.90
22716;DHT22;11525;51.152;4.456;2023-02-01T10:04:11;12.30;99.90
22716;DHT22;11525;51.152;4.456;2023-02-01T10:06:47;12.50;99.90
22716;DHT22;11525;51.152;4.456;2023-02-01T10:20:46;13.50;99.90
22716;DHT22;11525;51.152;4.456;2023-02-01T10:25:55;15.00;99.90
22716;DHT22;11525;51.152;4.456;2023-02-01T10:28:22;15.30;99.90
22716;DHT22;11525;51.152;4.456;2023-02-01T10:30:53;14.50;99.90
22716;DHT22;11525;51.152;4.456;2023-02-01T10:33:27;14.90;99.90
22716;DHT22;11525;51.152;4.456;2023-02-01T10:36:24;15.50;99.90
22716;DHT22;11525;51.152;4.456;2023-02-01T10:38:50;15.20;99.90
22716;DHT22;11525;51.152;4.456;2023-02-01T10:41:19;15.50;99.90
22716;DHT22;11525;51.152;4.456;2023-02-01T10:43:50;16.20;99.90
22716;DHT22;11525;51.152;4.456;2023-02-01T10:46:17;16.00;99.90
22716;DHT22;11525;51.152;4.456;2023-02-01T10:48:43;15.80;99.90
22716;DHT22;11525;51.152;4.456;2023-02-01T10:51:42;15.70;99.90
22716;DHT22;11525;51.152;4.456;2023-02-01T10:54:21;15.20;99.90
22716;DHT22;11525;51.152;4.456;2023-02-01T10:56:49;14.20;99.90
22716;DHT22;11525;51.152;4.456;2023-02-01T10:59:24;13.40;99.90
22716;DHT22;11525;51.152;4.456;2023-02-01T11:01:59;13.10;99.90
22716;DHT22;11525;51.152;4.456;2023-02-01T11:04:26;12.70;99.90
22716;DHT22;11525;51.152;4.456;2023-02-01T11:09:41;12.20;99.90
22716;DHT22;11525;51.152;4.456;2023-02-01T11:15:13;11.40;99.90
22716;DHT22;11525;51.152;4.456;2023-02-01T11:17:44;11.30;99.90
22716;DHT22;11525;51.152;4.456;2023-02-01T11:20:20;11.20;99.90
22716;DHT22;11525;51.152;4.456;2023-02-01T11:22:48;11.10;99.90
22716;DHT22;11525;51.152;4.456;2023-02-01T11:25:18;11.00;99.90
22716;DHT22;11525;51.152;4.456;2023-02-01T11:27:44;10.70;99.90
22716;DHT22;11525;51.152;4.456;2023-02-01T11:30:19;10.80;99.90
22716;DHT22;11525;51.152;4.456;2023-02-01T11:32:48;11.00;99.90
22716;DHT22;11525;51.152;4.456;2023-02-01T11:35:18;11.20;99.90
22716;DHT22;11525;51.152;4.456;2023-02-01T11:37:50;10.80;99.90
22716;DHT22;11525;51.152;4.456;2023-02-01T11:43:01;10.80;99.90
22716;DHT22;11525;51.152;4.456;2023-02-01T11:45:33;10.90;99.90
22716;DHT22;11525;51.152;4.456;2023-02-01T11:48:14;10.90;99.90
22716;DHT22;11525;51.152;4.456;2023-02-01T11:54:09;10.90;99.90
22716;DHT22;11525;51.152;4.456;2023-02-01T12:09:45;10.40;99.90
22716;DHT22;11525;51.152;4.456;2023-02-01T12:14:55;10.70;99.90
22716;DHT22;11525;51.152;4.456;2023-02-01T12:28:10;10.60;99.90
22716;DHT22;11525;51.152;4.456;2023-02-01T12:31:14;10.50;99.90
22716;DHT22;11525;51.152;4.456;2023-02-01T12:34:05;10.50;99.90
22716;DHT22;11525;51.152;4.456;2023-02-01T12:42:25;10.70;99.90
22716;DHT22;11525;51.152;4.456;2023-02-01T12:45:12;10.40;99.90
22716;DHT22;11525;51.152;4.456;2023-02-01T12:47:46;10.30;99.90
22716;DHT22;11525;51.152;4.456;2023-02-01T12:50:20;10.10;99.90
22716;DHT22;11525;51.152;4.456;2023-02-01T12:52:50;10.10;99.90
22716;DHT22;11525;51.152;4.456;2023-02-01T12:55:45;10.20;99.90
22716;DHT22;11525;51.152;4.456;2023-02-01T12:58:29;10.40;99.90
22716;DHT22;11525;51.152;4.456;2023-02-01T13:01:25;10.50;99.90
22716;DHT22;11525;51.152;4.456;2023-02-01T13:04:20;10.70;99.90
22716;DHT22;11525;51.152;4.456;2023-02-01T13:07:13;10.50;99.90
22716;DHT22;11525;51.152;4.456;2023-02-01T13:12:25;10.60;99.90
22716;DHT22;11525;51.152;4.456;2023-02-01T13:15:11;10.80;99.90
22716;DHT22;11525;51.152;4.456;2023-02-01T13:17:40;10.50;99.90
22716;DHT22;11525;51.152;4.456;2023-02-01T13:20:38;10.60;99.90
22716;DHT22;11525;51.152;4.456;2023-02-01T13:23:39;10.60;99.90
22716;DHT22;11525;51.152;4.456;2023-02-01T13:26:06;10.60;99.90
22716;DHT22;11525;51.152;4.456;2023-02-01T13:42:34;10.40;99.90
22716;DHT22;11525;51.152;4.456;2023-02-01T13:45:14;10.50;99.90
22716;DHT22;11525;51.152;4.456;2023-02-01T13:47:51;10.40;99.90
22716;DHT22;11525;51.152;4.456;2023-02-01T13:50:37;11.00;99.90
22716;DHT22;11525;51.152;4.456;2023-02-01T13:56:01;10.80;99.90
22716;DHT22;11525;51.152;4.456;2023-02-01T13:58:33;10.90;99.90
22716;DHT22;11525;51.152;4.456;2023-02-01T14:03:49;10.90;99.90
22716;DHT22;11525;51.152;4.456;2023-02-01T14:06:36;10.80;99.90
22716;DHT22;11525;51.152;4.456;2023-02-01T14:11:48;10.60;99.90
22716;DHT22;11525;51.152;4.456;2023-02-01T14:19:29;10.70;99.90
22716;DHT22;11525;51.152;4.456;2023-02-01T14:21:57;10.70;99.90
22716;DHT22;11525;51.152;4.456;2023-02-01T14:24:28;10.80;99.90
22716;DHT22;11525;51.152;4.456;2023-02-01T14:26:56;11.10;99.90
22716;DHT22;11525;51.152;4.456;2023-02-01T14:29:32;11.30;99.90
22716;DHT22;11525;51.152;4.456;2023-02-01T14:32:16;11.00;99.90
22716;DHT22;11525;51.152;4.456;2023-02-01T14:34:49;11.10;99.90
22716;DHT22;11525;51.152;4.456;2023-02-01T14:50:42;10.40;99.90
22716;DHT22;11525;51.152;4.456;2023-02-01T14:55:41;10.30;99.90
22716;DHT22;11525;51.152;4.456;2023-02-01T14:58:23;10.00;99.90
22716;DHT22;11525;51.152;4.456;2023-02-01T15:00:59;9.80;99.90
22716;DHT22;11525;51.152;4.456;2023-02-01T15:06:01;9.70;99.90
22716;DHT22;11525;51.152;4.456;2023-02-01T15:08:38;9.80;99.90
22716;DHT22;11525;51.152;4.456;2023-02-01T15:11:14;9.70;99.90
22716;DHT22;11525;51.152;4.456;2023-02-01T15:13:40;9.70;99.90
22716;DHT22;11525;51.152;4.456;2023-02-01T15:16:14;9.70;99.90
22716;DHT22;11525;51.152;4.456;2023-02-01T15:18:41;9.70;99.90
22716;DHT22;11525;51.152;4.456;2023-02-01T15:21:19;9.70;99.90
22716;DHT22;11525;51.152;4.456;2023-02-01T15:23:45;9.70;99.90
22716;DHT22;11525;51.152;4.456;2023-02-01T15:26:34;9.70;99.90
22716;DHT22;11525;51.152;4.456;2023-02-01T15:29:00;9.60;99.90
22716;DHT22;11525;51.152;4.456;2023-02-01T15:31:52;9.70;99.90
22716;DHT22;11525;51.152;4.456;2023-02-01T15:34:18;9.80;99.90
22716;DHT22;11525;51.152;4.456;2023-02-01T15:36:45;9.90;99.90
22716;DHT22;11525;51.152;4.456;2023-02-01T15:39:16;9.90;99.90
22716;DHT22;11525;51.152;4.456;2023-02-01T15:41:47;9.70;99.90
22716;DHT22;11525;51.152;4.456;2023-02-01T15:44:36;9.70;99.90
22716;DHT22;11525;51.152;4.456;2023-02-01T15:47:22;9.70;99.90
22716;DHT22;11525;51.152;4.456;2023-02-01T15:49:53;9.80;99.90
22716;DHT22;11525;51.152;4.456;2023-02-01T15:52:36;9.80;99.90
22716;DHT22;11525;51.152;4.456;2023-02-01T15:55:31;9.90;99.90
22716;DHT22;11525;51.152;4.456;2023-02-01T15:57:59;9.80;99.90
22716;DHT22;11525;51.152;4.456;2023-02-01T16:00:30;9.70;99.90
22716;DHT22;11525;51.152;4.456;2023-02-01T16:03:04;9.70;99.90
22716;DHT22;11525;51.152;4.456;2023-02-01T16:05:40;9.60;99.90
22716;DHT22;11525;51.152;4.456;2023-02-01T16:08:17;9.60;99.90
22716;DHT22;11525;51.152;4.456;2023-02-01T16:10:47;9.60;99.90
22716;DHT22;11525;51.152;4.456;2023-02-01T16:13:15;9.40;99.90
22716;DHT22;11525;51.152;4.456;2023-02-01T16:15:41;9.40;99.90
22716;DHT22;11525;51.152;4.456;2023-02-01T16:18:08;9.40;99.90
22716;DHT22;11525;51.152;4.456;2023-02-01T16:20:36;9.40;99.90
22716;DHT22;11525;51.152;4.456;2023-02-01T16:23:03;9.50;99.90
22716;DHT22;11525;51.152;4.456;2023-02-01T16:25:29;9.60;99.90
22716;DHT22;11525;51.152;4.456;2023-02-01T16:27:55;9.70;99.90
22716;DHT22;11525;51.152;4.456;2023-02-01T16:30:21;9.80;99.90
22716;DHT22;11525;51.152;4.456;2023-02-01T16:32:53;9.60;99.90
22716;DHT22;11525;51.152;4.456;2023-02-01T16:35:28;9.50;99.90
22716;DHT22;11525;51.152;4.456;2023-02-01T16:37:57;9.50;99.90
22716;DHT22;11525;51.152;4.456;2023-02-01T16:40:23;9.60;99.90
22716;DHT22;11525;51.152;4.456;2023-02-01T16:42:51;9.60;99.90
22716;DHT22;11525;51.152;4.456;2023-02-01T16:45:18;9.60;99.90
22716;DHT22;11525;51.152;4.456;2023-02-01T16:47:49;9.70;99.90
22716;DHT22;11525;51.152;4.456;2023-02-01T16:50:20;9.80;99.90
22716;DHT22;11525;51.152;4.456;2023-02-01T16:52:46;9.80;99.90
22716;DHT22;11525;51.152;4.456;2023-02-01T16:55:14;9.90;99.90
22716;DHT22;11525;51.152;4.456;2023-02-01T16:57:41;9.80;99.90
22716;DHT22;11525;51.152;4.456;2023-02-01T17:00:09;9.80;99.90
22716;DHT22;11525;51.152;4.456;2023-02-01T17:02:35;9.70;99.90
22716;DHT22;11525;51.152;4.456;2023-02-01T17:05:01;9.80;99.90
22716;DHT22;11525;51.152;4.456;2023-02-01T17:07:26;9.70;99.90
22716;DHT22;11525;51.152;4.456;2023-02-01T17:09:52;9.70;99.90
22716;DHT22;11525;51.152;4.456;2023-02-01T17:12:24;9.60;99.90
22716;DHT22;11525;51.152;4.456;2023-02-01T17:14:50;9.60;99.90
22716;DHT22;11525;51.152;4.456;2023-02-01T17:17:18;9.70;99.90
22716;DHT22;11525;51.152;4.456;2023-02-01T17:19:49;10.10;99.90
22716;DHT22;11525;51.152;4.456;2023-02-01T17:22:22;10.20;99.90
22716;DHT22;11525;51.152;4.456;2023-02-01T17:24:48;10.40;99.90
22716;DHT22;11525;51.152;4.456;2023-02-01T17:27:16;10.20;99.90
22716;DHT22;11525;51.152;4.456;2023-02-01T17:29:45;10.10;99.90
22716;DHT22;11525;51.152;4.456;2023-02-01T17:32:20;9.90;99.90
22716;DHT22;11525;51.152;4.456;2023-02-01T17:34:47;9.90;99.90
22716;DHT22;11525;51.152;4.456;2023-02-01T17:37:28;9.90;99.90
22716;DHT22;11525;51.152;4.456;2023-02-01T17:39:54;9.80;99.90
22716;DHT22;11525;51.152;4.456;2023-02-01T17:42:20;9.70;99.90
22716;DHT22;11525;51.152;4.456;2023-02-01T17:44:46;9.60;99.90
22716;DHT22;11525;51.152;4.456;2023-02-01T17:47:12;9.60;99.90
22716;DHT22;11525;51.152;4.456;2023-02-01T17:49:37;9.40;99.90
22716;DHT22;11525;51.152;4.456;2023-02-01T17:52:04;9.50;99.90
22716;DHT22;11525;51.152;4.456;2023-02-01T17:54:30;9.50;99.90
22716;DHT22;11525;51.152;4.456;2023-02-01T17:56:56;9.60;99.90
22716;DHT22;11525;51.152;4.456;2023-02-01T17:59:27;9.60;99.90
22716;DHT22;11525;51.152;4.456;2023-02-01T18:01:53;9.70;99.90
22716;DHT22;11525;51.152;4.456;2023-02-01T18:04:25;9.50;99.90
22716;DHT22;11525;51.152;4.456;2023-02-01T18:06:50;9.40;99.90
22716;DHT22;11525;51.152;4.456;2023-02-01T18:09:16;9.40;99.90
22716;DHT22;11525;51.152;4.456;2023-02-01T18:11:42;9.40;99.90
22716;DHT22;11525;51.152;4.456;2023-02-01T18:14:11;9.40;99.90
22716;DHT22;11525;51.152;4.456;2023-02-01T18:16:37;9.50;99.90
22716;DHT22;11525;51.152;4.456;2023-02-01T18:19:03;9.50;99.90
22716;DHT22;11525;51.152;4.456;2023-02-01T18:21:37;9.50;99.90
22716;DHT22;11525;51.152;4.456;2023-02-01T18:24:06;9.50;99.90
22716;DHT22;11525;51.152;4.456;2023-02-01T18:26:32;9.70;99.90